createdAt,value
2019-02-18T00:00:46.448Z,45.67
2019-02-18T00:03:51.706Z,44.27
2019-02-18T00:06:56.906Z,43.80
2019-02-18T00:10:02.102Z,45.93
2019-02-18T00:13:07.319Z,50.37
2019-02-18T00:16:12.479Z,39.57
2019-02-18T00:19:17.765Z,39.17
2019-02-18T00:22:22.932Z,42.17
2019-02-18T00:25:28.064Z,49.80
2019-02-18T00:28:37.873Z,49.50
2019-02-18T00:31:43.071Z,56.17
2019-02-18T00:34:48.221Z,55.13
2019-02-18T00:37:53.417Z,45.30
2019-02-18T00:40:58.562Z,45.17
2019-02-18T00:44:03.750Z,45.07
2019-02-18T00:47:08.875Z,40.13
2019-02-18T00:50:14.021Z,43.47
2019-02-18T00:53:19.210Z,41.63
2019-02-18T00:56:24.375Z,44.13
2019-02-18T00:59:30.976Z,45.40
2019-02-18T01:02:36.177Z,44.47
2019-02-18T01:05:41.304Z,48.67
2019-02-18T01:08:46.475Z,45.53
2019-02-18T01:11:51.624Z,46.17
2019-02-18T01:14:56.982Z,48.50
2019-02-18T01:18:02.167Z,47.40
2019-02-18T01:21:07.551Z,48.63
2019-02-18T01:24:12.713Z,46.80
2019-02-18T01:27:17.866Z,46.20
2019-02-18T01:30:23.053Z,48.97
2019-02-18T01:33:28.230Z,46.83
2019-02-18T01:36:33.356Z,41.13
2019-02-18T01:39:38.469Z,40.90
2019-02-18T01:42:43.676Z,42.13
2019-02-18T01:45:48.838Z,37.77
2019-02-18T01:48:53.961Z,40.07
2019-02-18T01:51:59.107Z,36.43
2019-02-18T01:55:04.501Z,34.87
2019-02-18T01:58:09.663Z,33.77
2019-02-18T02:01:18.432Z,31.70
2019-02-18T02:04:23.697Z,33.80
2019-02-18T02:07:28.805Z,40.80
2019-02-18T02:10:34.155Z,54.37
2019-02-18T02:13:39.303Z,152.13
2019-02-18T02:16:44.564Z,159.00
2019-02-18T02:19:49.749Z,158.17
2019-02-18T02:22:55.010Z,109.67
2019-02-18T02:26:00.229Z,61.30
2019-02-18T02:29:05.436Z,49.53
2019-02-18T02:32:10.624Z,64.40
2019-02-18T02:35:15.896Z,71.87
2019-02-18T02:38:21.018Z,86.03
2019-02-18T02:41:26.261Z,130.73
2019-02-18T02:44:31.657Z,68.30
2019-02-18T02:47:36.828Z,37.23
2019-02-18T02:50:41.993Z,44.50
2019-02-18T02:53:47.162Z,55.53
2019-02-18T02:56:52.335Z,41.20
2019-02-18T02:59:57.575Z,41.60
2019-02-18T03:03:02.735Z,51.43
2019-02-18T03:06:08.003Z,60.47
2019-02-18T03:09:13.166Z,55.03
2019-02-18T03:12:18.337Z,78.37
2019-02-18T03:15:25.022Z,48.80
2019-02-18T03:18:30.279Z,74.80
2019-02-18T03:21:35.583Z,68.87
2019-02-18T03:25:16.277Z,152.67
2019-02-18T03:28:59.289Z,83.60
2019-02-18T03:32:04.478Z,93.43
2019-02-18T03:35:09.640Z,95.27
2019-02-18T03:38:14.858Z,93.47
2019-02-18T03:41:20.040Z,56.67
2019-02-18T03:44:25.317Z,103.60
2019-02-18T03:47:30.428Z,75.43
2019-02-18T03:50:35.637Z,61.40
2019-02-18T03:53:40.783Z,71.60
2019-02-18T03:56:46.059Z,91.23
2019-02-18T03:59:51.240Z,50.27
2019-02-18T04:02:56.408Z,42.87
2019-02-18T04:06:01.663Z,75.57
2019-02-18T04:09:07.290Z,65.60
2019-02-18T04:12:12.490Z,94.87
2019-02-18T04:15:17.640Z,110.07
2019-02-18T04:18:22.835Z,84.60
2019-02-18T04:21:28.056Z,97.50
2019-02-18T04:24:33.234Z,91.13
2019-02-18T04:27:38.423Z,60.20
2019-02-18T04:30:43.663Z,41.83
2019-02-18T04:33:48.837Z,73.07
2019-02-18T04:36:54.022Z,53.60
2019-02-18T04:39:59.148Z,55.07
2019-02-18T04:43:04.304Z,61.83
2019-02-18T04:46:09.520Z,56.63
2019-02-18T04:49:14.703Z,54.03
2019-02-18T04:52:19.904Z,47.67
2019-02-18T04:55:25.158Z,53.63
2019-02-18T04:58:30.375Z,53.87
2019-02-18T05:01:35.529Z,87.73
2019-02-18T05:04:40.658Z,84.70
2019-02-18T05:07:45.848Z,191.63
2019-02-18T05:10:51.048Z,138.90
2019-02-18T05:13:56.313Z,148.63
2019-02-18T05:17:01.552Z,156.17
2019-02-18T05:20:06.821Z,87.70
2019-02-18T05:23:11.933Z,83.07
2019-02-18T05:26:18.200Z,153.07
2019-02-18T05:29:23.349Z,133.87
2019-02-18T05:32:28.543Z,152.67
2019-02-18T05:35:33.651Z,123.63
2019-02-18T05:38:38.818Z,111.07
2019-02-18T05:41:43.945Z,121.03
2019-02-18T05:44:49.150Z,139.57
2019-02-18T05:47:54.375Z,154.03
2019-02-18T05:50:59.556Z,156.90
2019-02-18T05:54:04.641Z,78.93
2019-02-18T05:57:09.848Z,145.60
2019-02-18T06:00:15.581Z,90.60
2019-02-18T06:03:20.680Z,134.90
2019-02-18T06:06:25.865Z,108.73
2019-02-18T06:09:31.115Z,99.60
2019-02-18T06:12:36.295Z,116.47
2019-02-18T06:15:41.553Z,146.30
2019-02-18T06:18:46.684Z,117.90
2019-02-18T06:21:59.040Z,151.00
2019-02-18T06:25:04.191Z,184.03
2019-02-18T06:28:09.390Z,93.33
2019-02-18T06:31:14.497Z,74.73
2019-02-18T06:34:19.774Z,148.97
2019-02-18T06:37:24.876Z,64.80
2019-02-18T06:40:30.069Z,65.77
2019-02-18T06:43:35.293Z,83.57
2019-02-18T06:46:59.370Z,72.90
2019-02-18T06:50:05.012Z,55.63
2019-02-18T06:53:10.190Z,44.10
2019-02-18T06:56:17.450Z,55.67
2019-02-18T06:59:29.443Z,49.23
2019-02-18T07:02:38.835Z,66.33
2019-02-18T07:06:04.089Z,100.47
2019-02-18T07:09:51.229Z,106.77
2019-02-18T07:12:54.141Z,129.97
2019-02-18T07:15:59.322Z,122.90
2019-02-18T07:19:04.464Z,94.47
2019-02-18T07:22:09.591Z,118.73
2019-02-18T07:25:14.836Z,114.97
2019-02-18T07:28:20.183Z,64.77
2019-02-18T07:31:25.356Z,82.43
2019-02-18T07:34:30.529Z,131.20
2019-02-18T07:37:35.686Z,87.20
2019-02-18T07:40:40.931Z,91.27
2019-02-18T07:43:46.139Z,167.87
2019-02-18T07:46:51.337Z,154.83
2019-02-18T07:49:56.538Z,125.67
2019-02-18T07:53:01.803Z,190.07
2019-02-18T07:56:07.083Z,112.77
2019-02-18T07:59:12.205Z,130.03
2019-02-18T08:02:17.386Z,105.73
2019-02-18T08:05:22.529Z,155.77
2019-02-18T08:08:27.718Z,205.73
2019-02-18T08:11:32.815Z,69.77
2019-02-18T08:14:37.971Z,75.27
2019-02-18T08:17:43.141Z,112.47
2019-02-18T08:20:48.364Z,165.30
2019-02-18T08:24:00.166Z,126.27
2019-02-18T08:27:00.510Z,118.20
2019-02-18T08:30:06.435Z,178.97
2019-02-18T08:33:11.641Z,162.10
2019-02-18T08:36:16.765Z,288.97
2019-02-18T08:39:21.926Z,282.93
2019-02-18T08:42:27.041Z,185.73
2019-02-18T08:45:32.210Z,132.17
2019-02-18T08:48:37.388Z,315.37
2019-02-18T08:51:42.497Z,322.40
2019-02-18T08:54:56.199Z,257.93
2019-02-18T08:57:54.639Z,240.13
2019-02-18T09:01:02.576Z,178.43
2019-02-18T09:04:06.772Z,110.83
2019-02-18T09:07:11.995Z,80.57
2019-02-18T09:10:17.139Z,129.03
2019-02-18T09:13:22.278Z,128.07
2019-02-18T09:16:27.487Z,148.37
2019-02-18T09:19:32.600Z,76.00
2019-02-18T09:22:57.986Z,227.73
2019-02-18T09:26:04.198Z,115.47
2019-02-18T09:29:11.788Z,179.80
2019-02-18T09:32:16.889Z,101.23
2019-02-18T09:35:22.122Z,80.80
2019-02-18T09:38:27.235Z,99.13
2019-02-18T09:41:32.430Z,82.10
2019-02-18T09:44:37.583Z,81.50
2019-02-18T09:47:42.702Z,68.03
2019-02-18T09:50:47.827Z,67.23
2019-02-18T09:53:52.958Z,71.70
2019-02-18T09:56:58.176Z,60.23
2019-02-18T10:00:03.457Z,69.30
2019-02-18T10:03:08.862Z,65.73
2019-02-18T10:06:14.076Z,62.80
2019-02-18T10:09:19.163Z,59.40
2019-02-18T10:12:24.280Z,89.13
2019-02-18T10:15:29.451Z,67.17
2019-02-18T10:18:34.670Z,61.03
2019-02-18T10:21:39.840Z,57.47
2019-02-18T10:24:50.663Z,55.67
2019-02-18T10:27:51.913Z,50.00
2019-02-18T10:30:57.160Z,47.87
2019-02-18T10:34:02.263Z,48.60
2019-02-18T10:37:07.444Z,52.30
2019-02-18T10:40:12.735Z,55.63
2019-02-18T10:43:17.923Z,57.53
2019-02-18T10:46:23.029Z,51.60
2019-02-18T10:49:28.279Z,47.47
2019-02-18T10:52:33.481Z,46.80
2019-02-18T10:55:38.589Z,43.00
2019-02-18T10:58:44.827Z,43.90
2019-02-18T11:01:50.019Z,39.57
2019-02-18T11:04:55.174Z,42.10
2019-02-18T11:08:00.442Z,43.80
2019-02-18T11:11:05.534Z,39.00
2019-02-18T11:14:10.685Z,42.23
2019-02-18T11:17:16.148Z,39.97
2019-02-18T11:20:21.243Z,40.73
2019-02-18T11:23:26.457Z,40.50
2019-02-18T11:26:31.627Z,41.93
2019-02-18T11:29:36.845Z,42.70
2019-02-18T11:32:41.967Z,42.80
2019-02-18T11:35:47.163Z,41.90
2019-02-18T11:38:53.598Z,41.30
2019-02-18T11:41:58.845Z,39.03
2019-02-18T11:45:04.180Z,39.83
2019-02-18T11:48:09.408Z,37.43
2019-02-18T11:51:14.564Z,39.20
2019-02-18T11:54:19.775Z,37.73
2019-02-18T11:57:24.918Z,36.97
2019-02-18T12:00:30.082Z,34.40
2019-02-18T12:03:35.228Z,38.53
2019-02-18T12:06:40.368Z,35.73
2019-02-18T12:09:45.566Z,34.67
2019-02-18T12:12:50.639Z,34.27
2019-02-18T12:15:55.811Z,35.37
2019-02-18T12:19:01.117Z,35.53
2019-02-18T12:22:06.350Z,33.93
2019-02-18T12:25:11.883Z,31.60
2019-02-18T12:28:17.465Z,30.73
2019-02-18T12:31:22.627Z,34.70
2019-02-18T12:34:27.872Z,28.90
2019-02-18T12:37:33.222Z,31.13
2019-02-18T12:40:38.332Z,30.50
2019-02-18T12:43:43.614Z,29.97
2019-02-18T12:46:48.836Z,30.03
2019-02-18T12:49:54.118Z,30.47
2019-02-18T12:52:59.344Z,31.87
2019-02-18T12:56:04.478Z,34.37
2019-02-18T12:59:09.724Z,36.03
2019-02-18T13:02:14.985Z,31.97
2019-02-18T13:05:20.185Z,30.43
2019-02-18T13:08:25.359Z,40.63
2019-02-18T13:11:30.538Z,37.77
2019-02-18T13:14:35.716Z,36.60
2019-02-18T13:17:42.739Z,30.63
2019-02-18T13:20:47.806Z,29.20
2019-02-18T13:23:54.768Z,33.00
2019-02-18T13:26:59.881Z,33.50
2019-02-18T13:30:08.382Z,35.00
2019-02-18T13:33:13.667Z,34.50
2019-02-18T13:36:18.843Z,34.70
2019-02-18T13:39:23.972Z,32.27
2019-02-18T13:42:29.173Z,28.43
2019-02-18T13:45:34.388Z,27.00
2019-02-18T13:48:39.618Z,31.47
2019-02-18T13:51:44.803Z,34.17
2019-02-18T13:54:50.371Z,28.07
2019-02-18T13:57:55.487Z,29.40
2019-02-18T14:01:00.662Z,30.07
2019-02-18T14:04:05.797Z,25.17
2019-02-18T14:07:10.924Z,27.23
2019-02-18T14:10:16.100Z,26.20
2019-02-18T14:13:21.243Z,29.87
2019-02-18T14:16:26.416Z,24.53
2019-02-18T14:19:31.498Z,25.47
2019-02-18T14:22:36.666Z,26.23
2019-02-18T14:25:41.842Z,23.17
2019-02-18T14:28:47.008Z,23.70
2019-02-18T14:31:52.234Z,21.47
2019-02-18T14:34:58.098Z,24.10
2019-02-18T14:38:03.241Z,28.57
2019-02-18T14:41:08.703Z,19.90
2019-02-18T14:44:14.275Z,23.53
2019-02-18T14:47:19.394Z,23.43
2019-02-18T14:50:24.576Z,21.37
2019-02-18T14:53:29.763Z,22.43
2019-02-18T14:56:34.830Z,19.83
2019-02-18T14:59:40.020Z,17.73
2019-02-18T15:02:45.247Z,18.00
2019-02-18T15:05:51.280Z,18.87
2019-02-18T15:08:56.451Z,19.43
2019-02-18T15:12:01.644Z,22.87
2019-02-18T15:15:07.186Z,17.87
2019-02-18T15:18:12.395Z,16.93
2019-02-18T15:21:17.541Z,20.70
2019-02-18T15:24:23.354Z,17.77
2019-02-18T15:27:28.509Z,18.50
2019-02-18T15:30:33.703Z,20.20
2019-02-18T15:33:38.838Z,19.17
2019-02-18T15:36:44.013Z,18.23
2019-02-18T15:39:49.201Z,17.63
2019-02-18T15:42:54.425Z,18.70
2019-02-18T15:45:59.549Z,19.10
2019-02-18T15:49:04.696Z,18.70
2019-02-18T15:52:09.901Z,18.07
2019-02-18T15:55:15.181Z,18.17
2019-02-18T15:58:20.338Z,19.60
2019-02-18T16:01:28.596Z,24.00
2019-02-18T16:04:34.080Z,23.30
2019-02-18T16:07:39.231Z,20.43
2019-02-18T16:10:44.385Z,26.60
2019-02-18T16:13:49.506Z,26.37
2019-02-18T16:16:54.693Z,21.50
2019-02-18T16:20:00.314Z,19.70
2019-02-18T16:23:05.420Z,20.70
2019-02-18T16:26:10.602Z,18.03
2019-02-18T16:29:15.814Z,28.17
2019-02-18T16:32:21.029Z,23.17
2019-02-18T16:35:26.244Z,24.73
2019-02-18T16:38:31.516Z,20.90
2019-02-18T16:41:36.640Z,20.73
2019-02-18T16:44:41.855Z,24.93
2019-02-18T16:47:47.046Z,30.33
2019-02-18T16:50:52.207Z,33.73
2019-02-18T16:53:57.584Z,34.37
2019-02-18T16:57:02.710Z,34.17
2019-02-18T17:00:17.206Z,44.87
2019-02-18T17:03:22.453Z,36.13
2019-02-18T17:06:27.646Z,35.83
2019-02-18T17:09:32.884Z,30.97
2019-02-18T17:12:38.043Z,25.37
2019-02-18T17:15:43.509Z,21.67
2019-02-18T17:18:48.680Z,27.40
2019-02-18T17:21:53.792Z,22.57
2019-02-18T17:24:59.171Z,24.90
2019-02-18T17:28:04.371Z,25.73
2019-02-18T17:31:09.554Z,25.43
2019-02-18T17:34:14.698Z,27.17
2019-02-18T17:37:19.958Z,25.93
2019-02-18T17:40:25.485Z,34.80
2019-02-18T17:43:31.634Z,40.17
2019-02-18T17:46:36.850Z,39.50
2019-02-18T17:49:42.012Z,45.83
2019-02-18T17:52:47.457Z,39.20
2019-02-18T17:55:52.686Z,45.53
2019-02-18T17:58:57.834Z,41.43
2019-02-18T18:02:03.053Z,33.17
2019-02-18T18:05:09.106Z,36.30
2019-02-18T18:08:14.344Z,45.60
2019-02-18T18:11:19.612Z,41.20
2019-02-18T18:14:24.964Z,40.47
2019-02-18T18:17:30.315Z,43.47
2019-02-18T18:20:35.512Z,38.80
2019-02-18T18:23:40.637Z,35.13
2019-02-18T18:26:45.785Z,35.70
2019-02-18T18:29:50.989Z,36.83
2019-02-18T18:32:56.185Z,35.00
2019-02-18T18:36:01.418Z,39.40
2019-02-18T18:39:06.998Z,39.30
2019-02-18T18:42:12.832Z,38.37
2019-02-18T18:45:20.246Z,36.63
2019-02-18T18:48:25.455Z,38.87
2019-02-18T18:51:30.640Z,35.87
2019-02-18T18:54:35.850Z,34.00
2019-02-18T18:57:41.006Z,28.07
2019-02-18T19:00:46.197Z,20.90
2019-02-18T19:03:51.496Z,28.63
2019-02-18T19:06:56.816Z,43.27
2019-02-18T19:10:02.013Z,40.13
2019-02-18T19:13:07.262Z,40.37
2019-02-18T19:16:12.767Z,42.43
2019-02-18T19:19:17.936Z,48.77
2019-02-18T19:22:23.151Z,59.47
2019-02-18T19:25:28.298Z,57.23
2019-02-18T19:28:33.543Z,54.20
2019-02-18T19:31:38.700Z,42.57
2019-02-18T19:34:43.922Z,69.57
2019-02-18T19:37:49.209Z,95.87
2019-02-18T19:40:54.531Z,46.00
2019-02-18T19:43:59.710Z,42.13
2019-02-18T19:47:04.960Z,38.27
2019-02-18T19:50:10.249Z,37.90
2019-02-18T19:53:15.475Z,32.33
2019-02-18T19:56:21.135Z,30.83
2019-02-18T19:59:26.398Z,37.37
2019-02-18T20:02:31.630Z,39.00
2019-02-18T20:05:36.993Z,37.77
2019-02-18T20:08:42.150Z,29.00
2019-02-18T20:11:47.476Z,29.90
2019-02-18T20:14:52.638Z,26.13
2019-02-18T20:17:57.859Z,32.07
2019-02-18T20:21:03.051Z,33.87
2019-02-18T20:24:09.323Z,27.90
2019-02-18T20:27:17.265Z,25.67
2019-02-18T20:30:22.444Z,28.77
2019-02-18T20:33:27.578Z,24.50
2019-02-18T20:36:32.718Z,26.60
2019-02-18T20:39:37.926Z,26.43
2019-02-18T20:42:43.131Z,23.93
2019-02-18T20:45:48.273Z,27.03
2019-02-18T20:48:54.530Z,34.13
2019-02-18T20:51:59.659Z,28.70
2019-02-18T20:55:05.252Z,26.87
2019-02-18T20:58:12.019Z,36.93
2019-02-18T21:01:17.291Z,40.23
2019-02-18T21:04:22.493Z,59.57
2019-02-18T21:07:27.647Z,63.00
2019-02-18T21:10:32.826Z,72.77
2019-02-18T21:13:37.999Z,46.10
2019-02-18T21:16:43.212Z,43.83
2019-02-18T21:19:48.402Z,44.63
2019-02-18T21:22:53.744Z,47.00
2019-02-18T21:25:58.846Z,44.77
2019-02-18T21:29:03.978Z,51.77
2019-02-18T21:32:09.117Z,44.27
2019-02-18T21:35:14.382Z,49.93
2019-02-18T21:38:19.839Z,46.37
2019-02-18T21:41:25.054Z,40.30
2019-02-18T21:44:30.260Z,37.90
2019-02-18T21:47:35.393Z,33.60
2019-02-18T21:50:40.611Z,44.57
2019-02-18T21:53:45.747Z,31.87
2019-02-18T21:56:50.882Z,30.43
2019-02-18T21:59:56.031Z,31.00
2019-02-18T22:03:01.166Z,30.77
2019-02-18T22:06:06.477Z,34.37
2019-02-18T22:09:11.585Z,34.97
2019-02-18T22:12:16.767Z,32.83
2019-02-18T22:15:21.949Z,29.57
2019-02-18T22:18:27.201Z,32.90
2019-02-18T22:21:32.364Z,28.80
2019-02-18T22:24:37.620Z,29.50
2019-02-18T22:27:43.207Z,36.53
2019-02-18T22:30:48.388Z,33.13
2019-02-18T22:33:53.528Z,34.77
2019-02-18T22:36:59.119Z,32.20
2019-02-18T22:40:04.666Z,33.03
2019-02-18T22:43:09.814Z,30.87
2019-02-18T22:46:15.497Z,38.70
2019-02-18T22:49:20.706Z,32.70
2019-02-18T22:52:25.885Z,34.10
2019-02-18T22:55:31.294Z,35.40
2019-02-18T22:58:36.589Z,29.43
2019-02-18T23:01:42.583Z,26.80
2019-02-18T23:04:47.907Z,25.63
2019-02-18T23:07:53.064Z,27.83
2019-02-18T23:10:58.225Z,25.70
2019-02-18T23:14:03.380Z,28.43
2019-02-18T23:17:08.512Z,28.70
2019-02-18T23:20:13.760Z,28.73
2019-02-18T23:23:18.876Z,23.47
2019-02-18T23:26:24.060Z,24.17
2019-02-18T23:29:29.304Z,26.97
2019-02-18T23:32:34.454Z,31.40
2019-02-18T23:35:39.666Z,26.90
2019-02-18T23:38:44.781Z,26.17
2019-02-18T23:41:49.950Z,26.13
2019-02-18T23:44:59.249Z,23.67
2019-02-18T23:48:03.407Z,22.43
2019-02-18T23:51:08.622Z,27.80
2019-02-18T23:54:13.723Z,28.30
2019-02-18T23:57:18.914Z,27.63
